Time;durP1;ratioP1;P1;durP2;ratioP2;P2;SDS_P1;SDS_P2;PMS_P1;PMS_P2;Temp;Humidity;BMP_temperature;BMP_pressure;BME280_temperature;BME280_humidity;BME280_pressure;Samples;Min_cycle;Max_cycle;Signal;HPM_P1;HPM_P2
2022/10/04 00:00:07;;;;;;;16.83;6.20;;;15.00;99.90;;;;;;5050510;28;20542;-58
2022/10/04 00:02:34;;;;;;;22.05;6.10;;;15.00;99.90;;;;;;5047364;28;20270;-60
2022/10/04 00:05:08;;;;;;;16.10;6.03;;;15.00;99.90;;;;;;5045299;28;20548;-58
2022/10/04 00:07:40;;;;;;;16.73;6.03;;;15.00;99.90;;;;;;5042862;28;20222;-57
2022/10/04 00:10:20;;;;;;;23.52;6.22;;;14.90;99.90;;;;;;5043890;28;20180;-66
2022/10/04 00:12:55;;;;;;;19.23;6.03;;;14.90;99.90;;;;;;5041192;28;20174;-59
2022/10/04 00:15:27;;;;;;;16.90;6.10;;;14.90;99.90;;;;;;5013729;28;20341;-58
2022/10/04 00:18:11;;;;;;;22.05;6.78;;;14.90;99.90;;;;;;5031998;28;20207;-68
2022/10/04 00:20:55;;;;;;;18.63;5.97;;;14.80;99.90;;;;;;5048455;28;20699;-58
2022/10/04 00:23:27;;;;;;;18.75;6.10;;;14.80;99.90;;;;;;5052141;28;20193;-58
2022/10/04 00:25:58;;;;;;;20.58;6.43;;;14.70;99.90;;;;;;5025815;28;20206;-57
2022/10/04 00:28:24;;;;;;;19.90;6.60;;;14.70;99.90;;;;;;5047615;28;20175;-57
2022/10/04 00:31:06;;;;;;;16.13;6.45;;;14.70;99.90;;;;;;5045105;28;20271;-58
2022/10/04 00:33:49;;;;;;;14.05;5.50;;;14.60;99.90;;;;;;5051905;28;20258;-58
2022/10/04 00:36:24;;;;;;;15.23;6.65;;;14.60;99.90;;;;;;5053232;28;20290;-58
2022/10/04 00:39:08;;;;;;;18.17;6.25;;;14.60;99.90;;;;;;5046360;28;20194;-59
2022/10/04 00:41:46;;;;;;;15.50;5.90;;;14.60;99.90;;;;;;5045948;28;20270;-58
2022/10/04 00:44:33;;;;;;;17.95;6.88;;;14.70;99.90;;;;;;5051091;28;20649;-68
2022/10/04 00:47:02;;;;;;;17.02;6.20;;;14.60;99.90;;;;;;5050779;28;20186;-67
2022/10/04 00:49:38;;;;;;;18.55;6.70;;;14.70;99.90;;;;;;5045090;28;20179;-54
2022/10/04 00:52:11;;;;;;;19.60;6.55;;;14.70;99.90;;;;;;5027271;28;20209;-61
2022/10/04 00:54:46;;;;;;;19.38;6.20;;;14.70;99.90;;;;;;5048437;28;20183;-57
2022/10/04 00:57:27;;;;;;;22.55;6.45;;;14.70;99.90;;;;;;5051221;28;20207;-58
2022/10/04 00:59:57;;;;;;;18.65;6.00;;;14.70;99.90;;;;;;5049908;28;20178;-59
2022/10/04 01:02:44;;;;;;;21.02;5.70;;;14.60;99.90;;;;;;5042026;28;20314;-56
2022/10/04 01:05:26;;;;;;;14.80;6.70;;;14.60;99.90;;;;;;5044602;28;20628;-68
2022/10/04 01:08:13;;;;;;;23.58;6.57;;;14.60;99.90;;;;;;5044419;28;20227;-55
2022/10/04 01:10:58;;;;;;;17.83;6.97;;;14.60;99.90;;;;;;5048267;28;20212;-64
2022/10/04 01:13:34;;;;;;;26.48;7.40;;;14.50;99.90;;;;;;5024954;28;20651;-57
2022/10/04 01:16:03;;;;;;;17.33;6.78;;;14.50;99.90;;;;;;5028798;28;20234;-58
2022/10/04 01:18:34;;;;;;;21.75;7.20;;;14.40;99.90;;;;;;5040131;28;20627;-58
2022/10/04 01:21:28;;;;;;;15.60;7.18;;;14.40;99.90;;;;;;5052164;28;20183;-65
2022/10/04 01:23:56;;;;;;;24.45;6.53;;;14.30;99.90;;;;;;5050231;28;20540;-57
2022/10/04 01:26:25;;;;;;;18.10;6.80;;;14.30;99.90;;;;;;5035856;28;20558;-55
2022/10/04 01:28:54;;;;;;;18.73;7.53;;;14.30;99.90;;;;;;5033184;28;20183;-55
2022/10/04 01:31:21;;;;;;;19.35;7.38;;;14.20;99.90;;;;;;5053590;28;20185;-60
2022/10/04 01:33:47;;;;;;;15.45;6.97;;;14.20;99.90;;;;;;5049301;28;20190;-58
2022/10/04 01:36:13;;;;;;;16.67;6.63;;;14.20;99.90;;;;;;5055658;28;20294;-53
2022/10/04 01:38:39;;;;;;;18.83;7.75;;;14.20;99.90;;;;;;5054371;28;20694;-58
2022/10/04 01:41:07;;;;;;;23.60;7.55;;;14.10;99.90;;;;;;5043870;28;20232;-56
2022/10/04 01:43:37;;;;;;;17.00;7.65;;;14.10;99.90;;;;;;5051477;28;20262;-72
2022/10/04 01:46:19;;;;;;;16.65;7.95;;;14.10;99.90;;;;;;5048538;28;20246;-58
2022/10/04 01:48:46;;;;;;;20.88;7.68;;;14.00;99.90;;;;;;5054552;28;20187;-57
2022/10/04 01:51:20;;;;;;;25.60;8.10;;;13.90;99.90;;;;;;5020619;28;20183;-58
2022/10/04 01:53:53;;;;;;;21.05;7.82;;;13.90;99.90;;;;;;5048932;28;20224;-57
2022/10/04 01:56:23;;;;;;;18.52;7.88;;;13.90;99.90;;;;;;5051146;28;20203;-58
2022/10/04 01:58:53;;;;;;;20.10;9.00;;;13.90;99.90;;;;;;5048176;28;20179;-69
2022/10/04 02:01:29;;;;;;;19.77;8.80;;;13.80;99.90;;;;;;5049354;28;20184;-57
2022/10/04 02:04:08;;;;;;;17.25;8.55;;;13.80;99.90;;;;;;5046536;28;20298;-72
2022/10/04 02:06:39;;;;;;;20.00;9.35;;;13.80;99.90;;;;;;5048424;28;20256;-58
2022/10/04 02:09:12;;;;;;;22.85;9.27;;;13.80;99.90;;;;;;5050292;28;20206;-65
2022/10/04 02:11:41;;;;;;;21.08;9.93;;;13.70;99.90;;;;;;5030008;28;20428;-71
2022/10/04 02:14:16;;;;;;;23.73;9.95;;;13.70;99.90;;;;;;5029445;28;20174;-64
2022/10/04 02:16:44;;;;;;;17.05;9.55;;;13.70;99.90;;;;;;5029723;28;20199;-67
2022/10/04 02:19:11;;;;;;;21.42;9.77;;;13.70;99.90;;;;;;5050172;28;20675;-58
2022/10/04 02:21:37;;;;;;;24.40;10.13;;;13.70;99.90;;;;;;5046264;28;20189;-58
2022/10/04 02:24:07;;;;;;;20.40;10.05;;;13.70;99.90;;;;;;5017209;28;20184;-57
2022/10/04 02:26:33;;;;;;;21.83;9.32;;;13.60;99.90;;;;;;5031083;28;20230;-58
2022/10/04 02:28:59;;;;;;;27.50;10.02;;;13.60;99.90;;;;;;5045337;28;20180;-57
2022/10/04 02:34:11;;;;;;;20.05;10.40;;;13.60;99.90;;;;;;5050596;28;20178;-56
2022/10/04 02:36:38;;;;;;;23.90;10.85;;;13.50;99.90;;;;;;5029059;28;20646;-71
2022/10/04 02:39:19;;;;;;;20.60;10.60;;;13.50;99.90;;;;;;5048984;28;20188;-57
2022/10/04 02:41:50;;;;;;;22.15;10.65;;;13.50;99.90;;;;;;5059168;28;20183;-54
2022/10/04 02:44:40;;;;;;;18.73;10.60;;;13.50;99.90;;;;;;5050388;28;20171;-57
2022/10/04 02:47:23;;;;;;;22.35;11.07;;;13.40;99.90;;;;;;5048057;28;20199;-57
2022/10/04 02:49:58;;;;;;;22.08;11.25;;;13.40;99.90;;;;;;5034674;28;20185;-58
2022/10/04 02:52:46;;;;;;;22.70;10.77;;;13.40;99.90;;;;;;5035766;28;20543;-57
2022/10/04 02:55:26;;;;;;;23.63;11.13;;;13.40;99.90;;;;;;5053518;28;20186;-58
2022/10/04 02:57:53;;;;;;;23.35;10.68;;;13.40;99.90;;;;;;5031818;28;20199;-68
2022/10/04 03:00:26;;;;;;;23.20;11.02;;;13.30;99.90;;;;;;5047657;28;20184;-57
2022/10/04 03:03:07;;;;;;;22.75;11.27;;;13.30;99.90;;;;;;5041832;28;20224;-56
2022/10/04 03:05:34;;;;;;;20.95;10.60;;;13.30;99.90;;;;;;5046453;28;20202;-55
2022/10/04 03:08:00;;;;;;;21.38;10.73;;;13.30;99.90;;;;;;5045665;28;20246;-57
2022/10/04 03:10:26;;;;;;;28.30;11.63;;;13.20;99.90;;;;;;5051253;28;20187;-56
2022/10/04 03:12:52;;;;;;;18.45;10.63;;;13.20;99.90;;;;;;5052840;28;20519;-55
2022/10/04 03:15:19;;;;;;;26.25;10.75;;;13.20;99.90;;;;;;5053892;28;20670;-57
2022/10/04 03:17:45;;;;;;;22.15;10.57;;;13.20;99.90;;;;;;5022898;28;20713;-56
2022/10/04 03:20:15;;;;;;;20.98;10.68;;;13.20;99.90;;;;;;5031186;28;20185;-56
2022/10/04 03:22:44;;;;;;;21.92;10.75;;;13.20;99.90;;;;;;5052279;28;20202;-56
2022/10/04 03:25:20;;;;;;;24.35;11.00;;;13.20;99.90;;;;;;5033773;28;20184;-56
2022/10/04 03:27:46;;;;;;;21.08;11.07;;;13.20;99.90;;;;;;5040220;28;20174;-61
2022/10/04 03:30:18;;;;;;;19.73;11.13;;;13.20;99.90;;;;;;5045544;28;20172;-56
2022/10/04 03:32:44;;;;;;;24.67;11.32;;;13.20;99.90;;;;;;5046892;28;21893;-55
2022/10/04 03:35:38;;;;;;;23.20;11.48;;;13.10;99.90;;;;;;5048145;28;20175;-61
2022/10/04 03:38:07;;;;;;;26.95;11.80;;;13.10;99.90;;;;;;5032559;28;20592;-57
2022/10/04 03:40:36;;;;;;;24.23;11.75;;;13.10;99.90;;;;;;5046903;28;20619;-57
2022/10/04 03:43:04;;;;;;;24.33;12.52;;;13.00;99.90;;;;;;5051829;28;20262;-57
2022/10/04 03:45:32;;;;;;;25.83;12.70;;;13.00;99.90;;;;;;5053596;28;20179;-57
2022/10/04 03:48:07;;;;;;;29.33;13.23;;;13.00;99.90;;;;;;5051310;28;20175;-57
2022/10/04 03:50:41;;;;;;;24.02;13.20;;;13.00;99.90;;;;;;5046970;28;20178;-56
2022/10/04 03:53:17;;;;;;;24.23;13.30;;;12.90;99.90;;;;;;5050619;28;20266;-57
2022/10/04 03:55:44;;;;;;;24.38;13.90;;;12.90;99.90;;;;;;5047162;28;20619;-57
2022/10/04 03:58:14;;;;;;;30.48;15.02;;;12.90;99.90;;;;;;5034054;28;20654;-57
2022/10/04 04:00:52;;;;;;;30.60;14.55;;;12.90;99.90;;;;;;5046700;28;20187;-59
2022/10/04 04:03:20;;;;;;;21.73;13.48;;;12.90;99.90;;;;;;5011963;28;20184;-56
2022/10/04 04:05:53;;;;;;;27.05;14.40;;;12.90;99.90;;;;;;5046068;28;20186;-57
2022/10/04 04:08:32;;;;;;;27.10;14.98;;;12.80;99.90;;;;;;5045474;28;21796;-59
2022/10/04 04:11:01;;;;;;;29.42;15.05;;;12.80;99.90;;;;;;5051130;28;20262;-58
2022/10/04 04:13:33;;;;;;;24.90;14.95;;;12.80;99.90;;;;;;5033904;28;20252;-56
2022/10/04 04:16:02;;;;;;;26.70;15.27;;;12.80;99.90;;;;;;5047721;28;20269;-56
2022/10/04 04:18:33;;;;;;;23.73;14.65;;;12.80;99.90;;;;;;5032512;28;20187;-57
2022/10/04 04:21:01;;;;;;;26.15;15.02;;;12.80;99.90;;;;;;5035104;28;20574;-57
2022/10/04 04:23:34;;;;;;;29.70;16.17;;;12.80;99.90;;;;;;5052214;28;20187;-59
2022/10/04 04:26:10;;;;;;;31.45;16.27;;;12.80;99.90;;;;;;5015165;28;20195;-58
2022/10/04 04:28:51;;;;;;;27.95;15.88;;;12.70;99.90;;;;;;5030354;28;20249;-57
2022/10/04 04:31:25;;;;;;;25.58;15.10;;;12.70;99.90;;;;;;5049734;28;20179;-58
2022/10/04 04:33:59;;;;;;;30.70;16.90;;;12.70;99.90;;;;;;5047652;28;20171;-58
2022/10/04 04:36:27;;;;;;;27.55;15.88;;;12.70;99.90;;;;;;5048296;28;20730;-58
2022/10/04 04:41:49;;;;;;;30.48;16.80;;;12.70;99.90;;;;;;5032518;28;20235;-57
2022/10/04 04:44:18;;;;;;;28.95;17.13;;;12.60;99.90;;;;;;5049017;28;20609;-58
2022/10/04 04:46:45;;;;;;;35.35;17.15;;;12.60;99.90;;;;;;5045768;28;20186;-58
2022/10/04 04:49:15;;;;;;;33.90;17.33;;;12.60;99.90;;;;;;5011548;28;20324;-58
2022/10/04 04:51:48;;;;;;;36.47;17.13;;;12.60;99.90;;;;;;5052446;28;20232;-59
2022/10/04 04:54:15;;;;;;;32.55;17.77;;;12.50;99.90;;;;;;5048039;28;20172;-58
2022/10/04 04:56:42;;;;;;;31.75;17.10;;;12.50;99.90;;;;;;5016977;28;20210;-58
2022/10/04 04:59:10;;;;;;;31.48;17.50;;;12.50;99.90;;;;;;5049253;28;20191;-60
2022/10/04 05:01:43;;;;;;;28.05;17.38;;;12.50;99.90;;;;;;5039887;28;20188;-56
2022/10/04 05:04:11;;;;;;;33.30;16.83;;;12.50;99.90;;;;;;5050457;28;20176;-56
2022/10/04 05:06:40;;;;;;;29.33;17.33;;;12.50;99.90;;;;;;5024131;28;20720;-57
2022/10/04 05:09:23;;;;;;;30.75;18.23;;;12.40;99.90;;;;;;5035486;28;20175;-57
2022/10/04 05:11:50;;;;;;;32.13;18.08;;;12.40;99.90;;;;;;5037922;28;20191;-59
2022/10/04 05:14:16;;;;;;;31.13;18.15;;;12.40;99.90;;;;;;5036447;28;20512;-55
2022/10/04 05:16:47;;;;;;;31.65;18.85;;;12.30;99.90;;;;;;5033029;28;20653;-53
2022/10/04 05:19:43;;;;;;;30.35;18.30;;;12.30;99.90;;;;;;5046683;28;20689;-54
2022/10/04 05:22:11;;;;;;;33.88;18.13;;;12.30;99.90;;;;;;5022030;28;20226;-54
2022/10/04 05:24:41;;;;;;;29.83;18.55;;;12.30;99.90;;;;;;5028471;28;20179;-56
2022/10/04 05:27:31;;;;;;;30.13;18.75;;;12.20;99.90;;;;;;5035530;28;20550;-57
2022/10/04 05:30:15;;;;;;;31.50;18.35;;;12.20;99.90;;;;;;5036233;28;20192;-59
2022/10/04 05:33:02;;;;;;;31.45;17.73;;;12.20;99.90;;;;;;5045447;28;20179;-67
2022/10/04 05:35:37;;;;;;;30.90;18.17;;;12.20;99.90;;;;;;5048202;28;20194;-59
2022/10/04 05:38:26;;;;;;;30.00;18.95;;;12.20;99.90;;;;;;5033936;28;20616;-59
2022/10/04 05:41:06;;;;;;;31.20;17.65;;;12.10;99.90;;;;;;5048663;28;20665;-58
2022/10/04 05:43:43;;;;;;;39.22;18.13;;;12.10;99.90;;;;;;5047185;28;20179;-63
2022/10/04 05:46:14;;;;;;;40.47;18.42;;;12.10;99.90;;;;;;5033506;28;20250;-60
2022/10/04 05:48:42;;;;;;;29.17;18.15;;;12.10;99.90;;;;;;5044707;28;20278;-58
2022/10/04 05:51:29;;;;;;;44.40;23.38;;;12.10;99.90;;;;;;5051530;28;20507;-59
2022/10/04 05:53:59;;;;;;;37.75;19.33;;;12.10;99.90;;;;;;5054377;28;20587;-58
2022/10/04 05:56:55;;;;;;;34.25;18.95;;;12.10;99.90;;;;;;5051118;28;20630;-58
2022/10/04 05:59:39;;;;;;;30.10;18.52;;;12.10;99.90;;;;;;5053575;28;20213;-60
2022/10/04 06:02:30;;;;;;;32.03;19.45;;;12.00;99.90;;;;;;5053388;28;20177;-66
2022/10/04 06:05:34;;;;;;;37.97;18.90;;;12.00;99.90;;;;;;5049420;28;20668;-62
2022/10/04 06:08:22;;;;;;;34.92;18.70;;;12.00;99.90;;;;;;5040227;28;20227;-57
2022/10/04 06:11:12;;;;;;;30.80;18.48;;;12.10;99.90;;;;;;5031635;28;20313;-56
2022/10/04 06:14:18;;;;;;;30.35;18.20;;;12.10;99.90;;;;;;5035971;28;20612;-58
2022/10/04 06:16:59;;;;;;;31.58;18.33;;;12.00;99.90;;;;;;5035213;28;20206;-64
2022/10/04 06:19:43;;;;;;;40.17;19.60;;;12.00;99.90;;;;;;5035238;28;20187;-64
2022/10/04 06:22:19;;;;;;;30.98;18.10;;;12.00;99.90;;;;;;5043114;28;20174;-62
2022/10/04 06:24:59;;;;;;;31.50;19.52;;;12.00;99.90;;;;;;5042209;28;20254;-48
2022/10/04 06:27:40;;;;;;;30.20;18.27;;;12.00;99.90;;;;;;5027072;28;20663;-60
2022/10/04 06:30:16;;;;;;;35.80;19.75;;;12.10;99.90;;;;;;5042620;28;20175;-58
2022/10/04 06:33:15;;;;;;;35.67;18.83;;;12.10;99.90;;;;;;5053306;28;20220;-55
2022/10/04 06:35:59;;;;;;;34.05;18.73;;;12.00;99.90;;;;;;5033502;28;20287;-60
2022/10/04 06:38:37;;;;;;;34.22;20.00;;;12.10;99.90;;;;;;5038912;28;20187;-58
2022/10/04 06:41:22;;;;;;;31.27;19.05;;;12.00;99.90;;;;;;5043288;28;20179;-58
2022/10/04 06:44:07;;;;;;;40.53;18.90;;;12.10;99.90;;;;;;5051853;28;20187;-58
2022/10/04 06:46:48;;;;;;;31.05;17.88;;;12.10;99.90;;;;;;5039340;28;20194;-58
2022/10/04 06:49:14;;;;;;;30.63;18.88;;;12.10;99.90;;;;;;5041735;28;20659;-59
2022/10/04 06:51:51;;;;;;;35.42;18.25;;;12.10;99.90;;;;;;5033773;28;20184;-58
2022/10/04 06:54:32;;;;;;;32.28;18.73;;;12.20;99.90;;;;;;5039849;28;20183;-57
2022/10/04 06:57:17;;;;;;;36.80;18.50;;;12.20;99.90;;;;;;5034064;28;20542;-62
2022/10/04 06:59:52;;;;;;;32.50;17.88;;;12.30;99.90;;;;;;5041670;28;20192;-64
2022/10/04 07:02:26;;;;;;;31.85;18.25;;;12.30;99.90;;;;;;5030483;28;20178;-59
2022/10/04 07:05:21;;;;;;;32.58;18.42;;;12.30;99.90;;;;;;5048322;28;20175;-57
2022/10/04 07:08:05;;;;;;;36.17;17.83;;;12.40;99.90;;;;;;5043207;28;20222;-57
2022/10/04 07:10:37;;;;;;;32.97;18.17;;;12.40;99.90;;;;;;5035887;28;20179;-67
2022/10/04 07:13:12;;;;;;;34.67;18.30;;;12.40;99.90;;;;;;5032274;28;20183;-56
2022/10/04 07:15:46;;;;;;;30.33;17.45;;;12.50;99.90;;;;;;5031602;28;20666;-59
2022/10/04 07:18:22;;;;;;;34.45;18.00;;;12.50;99.90;;;;;;5029586;28;20175;-56
2022/10/04 07:20:58;;;;;;;37.17;18.35;;;12.50;99.90;;;;;;5037640;28;20236;-58
2022/10/04 07:23:32;;;;;;;37.40;18.45;;;12.50;99.90;;;;;;5049597;28;20214;-66
2022/10/04 07:26:15;;;;;;;36.03;18.88;;;12.50;99.90;;;;;;5037559;28;20179;-57
2022/10/04 07:31:33;;;;;;;34.42;18.17;;;12.60;99.90;;;;;;5035701;28;20179;-59
2022/10/04 07:34:16;;;;;;;34.33;18.55;;;12.60;99.90;;;;;;5024009;28;20180;-59
2022/10/04 07:36:55;;;;;;;28.60;17.83;;;12.60;99.90;;;;;;5037032;28;20273;-61
2022/10/04 07:39:29;;;;;;;33.35;18.20;;;12.60;99.90;;;;;;5024684;28;20186;-58
2022/10/04 07:42:06;;;;;;;32.35;19.05;;;12.60;99.90;;;;;;5035051;28;20187;-58
2022/10/04 07:44:41;;;;;;;35.20;20.00;;;12.60;99.90;;;;;;5030715;28;20269;-58
2022/10/04 07:47:26;;;;;;;32.30;19.35;;;12.70;99.90;;;;;;5034289;28;20234;-58
2022/10/04 07:49:53;;;;;;;36.40;19.13;;;12.70;99.90;;;;;;5051829;28;20187;-55
2022/10/04 07:52:49;;;;;;;30.83;19.42;;;12.80;99.90;;;;;;5038860;28;20171;-69
2022/10/04 07:55:24;;;;;;;39.20;19.17;;;12.80;99.90;;;;;;5032043;28;20199;-57
2022/10/04 07:57:57;;;;;;;30.85;18.92;;;12.80;99.90;;;;;;5017220;28;20190;-57
2022/10/04 08:00:48;;;;;;;34.22;18.58;;;12.90;99.90;;;;;;5051970;28;20167;-61
2022/10/04 08:03:31;;;;;;;33.53;20.33;;;12.90;99.90;;;;;;5036122;28;20190;-60
2022/10/04 08:06:29;;;;;;;31.23;18.90;;;12.90;99.90;;;;;;5019043;28;20181;-58
2022/10/04 08:09:34;;;;;;;34.00;18.98;;;12.90;99.90;;;;;;5041688;28;20731;-57
2022/10/04 08:12:37;;;;;;;30.30;19.02;;;12.90;99.90;;;;;;5013402;28;20213;-64
2022/10/04 08:15:38;;;;;;;33.88;19.65;;;12.90;99.90;;;;;;5034395;28;20182;-71
2022/10/04 08:18:17;;;;;;;36.17;20.05;;;12.90;99.90;;;;;;5036850;28;20190;-57
2022/10/04 08:20:53;;;;;;;38.08;20.23;;;12.90;99.90;;;;;;5035069;28;20620;-59
2022/10/04 08:23:19;;;;;;;34.33;19.90;;;12.90;99.90;;;;;;5046385;28;20183;-55
2022/10/04 08:26:11;;;;;;;29.50;19.08;;;13.00;99.90;;;;;;5031667;28;20250;-59
2022/10/04 08:31:50;;;;;;;33.80;19.92;;;13.10;99.90;;;;;;5050434;28;20183;-59
2022/10/04 08:34:27;;;;;;;35.80;20.52;;;13.20;99.90;;;;;;5046072;28;20206;-66
2022/10/04 08:37:10;;;;;;;30.90;20.08;;;13.30;99.90;;;;;;5045974;28;20223;-61
2022/10/04 08:40:14;;;;;;;33.72;20.55;;;13.40;99.90;;;;;;5043672;28;20187;-58
2022/10/04 08:43:15;;;;;;;35.85;19.60;;;13.40;99.90;;;;;;5051712;28;20187;-58
2022/10/04 08:45:52;;;;;;;35.63;19.23;;;13.50;99.90;;;;;;4999508;28;20192;-58
2022/10/04 08:48:24;;;;;;;29.77;19.02;;;13.60;99.90;;;;;;5048940;28;20194;-58
2022/10/04 08:51:10;;;;;;;32.10;18.52;;;13.70;99.90;;;;;;5056432;28;20203;-58
2022/10/04 08:53:48;;;;;;;34.80;18.17;;;13.80;99.90;;;;;;5055780;28;20187;-58
2022/10/04 08:56:42;;;;;;;30.98;18.35;;;13.90;99.90;;;;;;5055113;28;20249;-58
2022/10/04 08:59:39;;;;;;;27.80;17.75;;;14.00;99.90;;;;;;5041249;28;20192;-59
2022/10/04 09:02:40;;;;;;;30.00;18.55;;;14.10;99.90;;;;;;5022984;28;20263;-75
2022/10/04 09:05:26;;;;;;;31.17;18.73;;;14.20;99.90;;;;;;5036259;28;20188;-57
2022/10/04 09:08:17;;;;;;;31.77;17.83;;;14.20;99.90;;;;;;5037305;28;20342;-56
2022/10/04 09:11:04;;;;;;;30.25;18.60;;;14.20;99.90;;;;;;5055978;28;20251;-57
2022/10/04 09:13:44;;;;;;;28.45;17.75;;;14.30;99.90;;;;;;5026841;28;20179;-58
2022/10/04 09:16:17;;;;;;;26.50;17.50;;;14.30;99.90;;;;;;5035207;28;20576;-59
2022/10/04 09:19:17;;;;;;;34.53;18.27;;;14.40;99.90;;;;;;5048713;28;20182;-56
2022/10/04 09:22:01;;;;;;;28.92;16.88;;;14.40;99.90;;;;;;5028491;28;20187;-65
2022/10/04 09:24:33;;;;;;;31.05;16.60;;;14.50;99.90;;;;;;5050883;28;20175;-57
2022/10/04 09:27:14;;;;;;;26.42;16.38;;;14.60;99.90;;;;;;5036364;28;20191;-56
2022/10/04 09:29:58;;;;;;;30.33;16.92;;;14.70;99.90;;;;;;5038245;28;20674;-61
2022/10/04 09:32:30;;;;;;;25.13;16.45;;;14.80;99.90;;;;;;5033338;28;20206;-65
2022/10/04 09:35:20;;;;;;;23.05;15.90;;;14.80;99.90;;;;;;5034369;28;20194;-56
2022/10/04 09:38:05;;;;;;;23.17;15.18;;;14.90;99.90;;;;;;5052946;28;20572;-56
2022/10/04 09:41:21;;;;;;;24.58;15.27;;;15.00;99.90;;;;;;5046622;28;20199;-55
2022/10/04 09:44:11;;;;;;;23.23;14.77;;;15.20;99.90;;;;;;4936691;29;20250;-53
2022/10/04 09:47:09;;;;;;;25.15;14.75;;;15.30;99.90;;;;;;4952900;29;20248;-54
2022/10/04 09:49:49;;;;;;;26.52;15.13;;;15.40;99.90;;;;;;5014043;28;20230;-57
2022/10/04 09:52:39;;;;;;;23.08;14.10;;;15.50;99.90;;;;;;5037145;28;20266;-56
2022/10/04 09:55:24;;;;;;;22.98;14.00;;;15.70;99.90;;;;;;5040742;28;20283;-55
2022/10/04 09:58:17;;;;;;;20.83;12.70;;;15.80;99.90;;;;;;5036873;28;20164;-55
2022/10/04 10:00:58;;;;;;;24.90;13.40;;;15.80;99.90;;;;;;5045985;28;20171;-67
2022/10/04 10:03:46;;;;;;;24.15;13.13;;;15.90;99.90;;;;;;5039098;28;20183;-54
2022/10/04 10:06:30;;;;;;;20.65;12.70;;;15.80;99.90;;;;;;5017726;28;20176;-56
2022/10/04 10:13:38;;;;;;;20.15;12.00;;;15.90;99.90;;;;;;5043061;28;20392;-57
2022/10/04 10:15:16;;;;;;;19.98;12.32;;;16.00;99.90;;;;;;5035063;28;20172;-57
2022/10/04 10:18:13;;;;;;;16.42;11.73;;;16.10;99.90;;;;;;5036697;28;20650;-68
2022/10/04 10:20:54;;;;;;;19.75;11.95;;;16.20;99.90;;;;;;5037619;28;20580;-56
2022/10/04 10:23:49;;;;;;;18.52;11.85;;;16.40;99.90;;;;;;5036264;28;20265;-57
2022/10/04 10:26:39;;;;;;;20.42;11.80;;;16.50;99.90;;;;;;5020695;28;20616;-57
2022/10/04 10:29:17;;;;;;;16.58;11.63;;;16.50;99.90;;;;;;5041466;28;20178;-66
2022/10/04 10:31:54;;;;;;;23.33;13.55;;;16.60;99.90;;;;;;5039787;28;20167;-56
2022/10/04 10:34:38;;;;;;;14.38;10.50;;;16.60;99.90;;;;;;5052672;28;20194;-57
2022/10/04 10:37:34;;;;;;;22.08;10.95;;;16.60;99.90;;;;;;5054264;28;20191;-57
2022/10/04 10:40:06;;;;;;;17.65;9.98;;;16.60;99.90;;;;;;5034952;28;20165;-57
2022/10/04 10:43:00;;;;;;;15.65;9.20;;;16.60;99.90;;;;;;5049384;28;20176;-58
2022/10/04 10:45:26;;;;;;;16.48;9.68;;;16.50;99.90;;;;;;5024690;28;20255;-57
2022/10/04 10:48:13;;;;;;;18.35;10.27;;;16.50;99.90;;;;;;5048490;28;20179;-57
2022/10/04 10:50:57;;;;;;;17.40;9.77;;;16.50;99.90;;;;;;5018964;28;20182;-67
2022/10/04 10:54:07;;;;;;;15.27;9.52;;;16.60;99.90;;;;;;5045697;28;21816;-58
2022/10/04 10:56:38;;;;;;;16.73;9.30;;;16.80;99.90;;;;;;5034082;28;20192;-56
2022/10/04 10:59:07;;;;;;;20.63;8.80;;;17.10;99.90;;;;;;5030391;28;20179;-58
2022/10/04 11:01:59;;;;;;;16.83;8.93;;;17.20;99.90;;;;;;5036098;28;20641;-58
2022/10/04 11:04:44;;;;;;;19.15;9.55;;;17.30;99.90;;;;;;5036308;28;20187;-59
2022/10/04 11:07:17;;;;;;;16.92;8.02;;;17.40;99.90;;;;;;5040541;28;20241;-58
2022/10/04 11:10:26;;;;;;;13.32;7.93;;;17.40;99.90;;;;;;5051248;28;20262;-57
2022/10/04 11:13:25;;;;;;;14.70;7.07;;;17.40;99.90;;;;;;5024348;28;20199;-72
2022/10/04 11:16:28;;;;;;;15.32;8.18;;;17.40;99.90;;;;;;5033428;28;20259;-58
2022/10/04 11:19:14;;;;;;;16.38;7.60;;;17.40;99.90;;;;;;5034346;28;20268;-69
2022/10/04 11:22:11;;;;;;;14.82;7.50;;;17.40;99.90;;;;;;5045115;28;20175;-58
2022/10/04 11:25:15;;;;;;;13.63;7.43;;;17.40;99.90;;;;;;5045301;28;20175;-58
2022/10/04 11:27:58;;;;;;;15.93;8.23;;;17.40;99.90;;;;;;5036554;28;20253;-58
2022/10/04 11:30:28;;;;;;;17.50;8.60;;;17.40;99.90;;;;;;5053935;28;20237;-58
2022/10/04 11:33:21;;;;;;;16.73;8.10;;;17.40;99.90;;;;;;5052099;28;20190;-58
2022/10/04 11:36:10;;;;;;;16.85;8.43;;;17.40;99.90;;;;;;5025400;28;20290;-66
2022/10/04 11:39:01;;;;;;;13.20;7.70;;;17.40;99.90;;;;;;5043094;28;20191;-57
2022/10/04 11:41:49;;;;;;;13.77;7.38;;;17.40;99.90;;;;;;5039601;28;20175;-58
2022/10/04 11:44:20;;;;;;;17.08;8.20;;;17.40;99.90;;;;;;5052795;28;20205;-58
2022/10/04 11:47:20;;;;;;;13.95;7.68;;;17.50;99.90;;;;;;5048401;28;20179;-59
2022/10/04 11:50:24;;;;;;;14.68;7.43;;;17.60;99.90;;;;;;5014834;28;20728;-65
2022/10/04 11:53:27;;;;;;;14.70;7.20;;;17.80;99.90;;;;;;5051148;28;20179;-58
2022/10/04 11:55:53;;;;;;;15.52;7.10;;;17.90;99.90;;;;;;5053808;28;20217;-58
2022/10/04 11:59:07;;;;;;;14.65;7.00;;;18.00;99.90;;;;;;5048615;28;20543;-59
2022/10/04 12:02:05;;;;;;;13.27;7.10;;;18.10;99.90;;;;;;5008582;28;20187;-59
2022/10/04 12:04:52;;;;;;;15.68;6.40;;;18.20;99.90;;;;;;5037110;28;20302;-63
2022/10/04 12:07:49;;;;;;;12.75;7.05;;;18.20;99.90;;;;;;5031187;28;20265;-59
2022/10/04 12:10:27;;;;;;;9.88;5.88;;;18.40;99.90;;;;;;5034378;28;20644;-59
2022/10/04 12:13:25;;;;;;;12.23;6.78;;;18.50;99.90;;;;;;5049467;28;20206;-59
2022/10/04 12:16:10;;;;;;;17.10;7.47;;;18.60;99.90;;;;;;5032661;28;20210;-59
2022/10/04 12:18:55;;;;;;;16.95;6.43;;;18.70;99.90;;;;;;5033842;28;20187;-59
2022/10/04 12:21:39;;;;;;;9.38;5.88;;;18.80;99.90;;;;;;5052000;28;20180;-59
2022/10/04 12:24:26;;;;;;;13.50;6.50;;;18.80;99.90;;;;;;5039521;28;20186;-59
2022/10/04 12:27:13;;;;;;;12.07;6.88;;;19.00;99.90;;;;;;5032810;28;20180;-59
2022/10/04 12:30:09;;;;;;;12.57;6.25;;;19.10;99.70;;;;;;5033840;28;20615;-59
2022/10/04 12:32:44;;;;;;;14.93;6.60;;;19.20;98.60;;;;;;5051677;28;20172;-59
2022/10/04 12:35:12;;;;;;;14.07;6.90;;;19.30;98.90;;;;;;5018133;28;20518;-59
2022/10/04 12:38:20;;;;;;;13.30;6.20;;;19.30;98.90;;;;;;5035606;28;20215;-59
2022/10/04 12:41:10;;;;;;;9.30;5.70;;;19.50;98.50;;;;;;5015914;28;20197;-62
2022/10/04 12:43:37;;;;;;;10.68;5.63;;;19.60;98.10;;;;;;5025962;28;20179;-59
2022/10/04 12:46:32;;;;;;;9.02;5.25;;;19.60;97.70;;;;;;5038392;28;20180;-59
2022/10/04 12:49:16;;;;;;;9.73;5.68;;;19.60;97.10;;;;;;5021593;28;20258;-59
2022/10/04 12:52:19;;;;;;;9.05;6.00;;;19.70;97.30;;;;;;5052553;28;20159;-59
2022/10/04 12:55:01;;;;;;;12.82;6.60;;;19.70;96.70;;;;;;5052164;28;20309;-59
2022/10/04 12:58:01;;;;;;;14.00;6.07;;;19.70;96.80;;;;;;5049986;28;20553;-62
2022/10/04 13:00:33;;;;;;;11.00;7.07;;;19.70;96.90;;;;;;5025699;28;20210;-59
2022/10/04 13:03:17;;;;;;;13.90;6.95;;;19.80;96.80;;;;;;5048470;28;20670;-59
2022/10/04 13:05:49;;;;;;;11.32;7.00;;;20.00;96.70;;;;;;5035405;28;20160;-59
2022/10/04 13:08:38;;;;;;;15.57;6.82;;;20.00;96.60;;;;;;5049106;28;20219;-59
2022/10/04 13:11:12;;;;;;;15.57;6.50;;;20.10;96.50;;;;;;5052326;28;20258;-58
2022/10/04 13:13:53;;;;;;;11.63;6.53;;;20.10;95.60;;;;;;5041240;28;20175;-59
2022/10/04 13:17:05;;;;;;;11.65;7.47;;;20.10;95.80;;;;;;5046539;28;20203;-58
2022/10/04 13:19:55;;;;;;;13.60;7.60;;;20.00;96.00;;;;;;5030176;28;20238;-63
2022/10/04 13:23:10;;;;;;;14.30;7.35;;;20.00;96.20;;;;;;5036027;28;20219;-68
2022/10/04 13:25:44;;;;;;;14.68;7.65;;;20.00;95.90;;;;;;5021305;28;21902;-65
2022/10/04 13:28:47;;;;;;;15.20;7.38;;;20.00;96.40;;;;;;5048087;28;20314;-58
2022/10/04 13:31:33;;;;;;;15.60;7.68;;;20.00;96.40;;;;;;5040010;28;20236;-65
2022/10/04 13:34:13;;;;;;;11.43;6.72;;;20.10;96.40;;;;;;5040799;28;20352;-64
2022/10/04 13:36:59;;;;;;;15.10;8.23;;;20.20;96.40;;;;;;5048249;28;20195;-62
2022/10/04 13:39:25;;;;;;;15.77;7.70;;;20.30;96.50;;;;;;5036273;28;20305;-66
2022/10/04 13:42:06;;;;;;;14.32;8.13;;;20.40;96.60;;;;;;5036764;28;20191;-63
2022/10/04 13:44:53;;;;;;;13.70;7.65;;;20.40;96.40;;;;;;5049580;28;20175;-63
2022/10/04 13:47:53;;;;;;;14.60;7.72;;;20.60;96.30;;;;;;5007283;28;20187;-63
2022/10/04 13:50:38;;;;;;;15.30;7.70;;;20.70;96.00;;;;;;5036404;28;20187;-60